createdAt,value
2018-06-27T00:01:57.511Z,101975.13
2018-06-27T00:04:26.597Z,101976.77
2018-06-27T00:06:55.712Z,101978.97
2018-06-27T00:09:25.125Z,101973.02
2018-06-27T00:11:54.232Z,101971.20
2018-06-27T00:14:23.316Z,101971.77
2018-06-27T00:16:52.476Z,101971.77
2018-06-27T00:19:21.615Z,101972.55
2018-06-27T00:21:50.673Z,101970.75
2018-06-27T00:24:19.753Z,101964.23
2018-06-27T00:26:48.856Z,101968.95
2018-06-27T00:29:17.936Z,101964.55
2018-06-27T00:31:47.020Z,101971.42
2018-06-27T00:34:16.120Z,101972.13
2018-06-27T00:36:45.209Z,101970.00
2018-06-27T00:39:14.304Z,101973.73
2018-06-27T00:41:43.380Z,101977.02
2018-06-27T00:44:12.481Z,101977.23
2018-06-27T00:46:41.565Z,101975.58
2018-06-27T00:49:10.666Z,101975.53
2018-06-27T00:51:39.748Z,101979.68
2018-06-27T00:54:09.761Z,101968.17
2018-06-27T00:56:41.700Z,101966.59
2018-06-27T00:59:10.808Z,101972.91
2018-06-27T01:01:39.977Z,101967.62
2018-06-27T01:04:09.089Z,101969.36
2018-06-27T01:06:38.182Z,101974.20
2018-06-27T01:09:08.711Z,101970.23
2018-06-27T01:11:37.805Z,101971.11
2018-06-27T01:14:06.893Z,101971.91
2018-06-27T01:16:35.960Z,101972.53
2018-06-27T01:19:05.162Z,101966.34
2018-06-27T01:21:34.294Z,101969.38
2018-06-27T01:24:03.395Z,101968.61
2018-06-27T01:26:32.465Z,101962.97
2018-06-27T01:29:01.557Z,101960.70
2018-06-27T01:31:30.628Z,101966.95
2018-06-27T01:33:59.725Z,101969.80
2018-06-27T01:36:28.833Z,101966.78
2018-06-27T01:38:57.959Z,101965.84
2018-06-27T01:41:27.023Z,101964.20
2018-06-27T01:43:56.087Z,101967.59
2018-06-27T01:46:25.184Z,101971.27
2018-06-27T01:48:54.464Z,101966.94
2018-06-27T01:51:23.565Z,101967.24
2018-06-27T01:53:52.721Z,101977.90
2018-06-27T01:56:21.760Z,101974.34
2018-06-27T01:58:50.840Z,101979.90
2018-06-27T02:01:19.936Z,101976.91
2018-06-27T02:03:49.009Z,101978.14
2018-06-27T02:06:18.155Z,101978.49
2018-06-27T02:08:47.227Z,101983.67
2018-06-27T02:11:16.329Z,101983.60
2018-06-27T02:13:45.399Z,101983.25
2018-06-27T02:16:14.504Z,101974.34
2018-06-27T02:18:43.572Z,101969.91
2018-06-27T02:21:12.663Z,101975.16
2018-06-27T02:23:41.764Z,101979.11
2018-06-27T02:26:10.870Z,101979.27
2018-06-27T02:28:39.944Z,101987.38
2018-06-27T02:31:09.209Z,101987.75
2018-06-27T02:33:38.277Z,101983.60
2018-06-27T02:36:07.377Z,101985.42
2018-06-27T02:38:36.447Z,101993.12
2018-06-27T02:41:05.544Z,101994.68
2018-06-27T02:43:34.616Z,101993.40
2018-06-27T02:46:03.744Z,101995.97
2018-06-27T02:48:32.825Z,101988.98
2018-06-27T02:51:02.722Z,101992.42
2018-06-27T02:53:37.125Z,101990.21
2018-06-27T02:56:07.765Z,101986.70
2018-06-27T02:58:36.856Z,101984.95
2018-06-27T03:01:06.053Z,101985.47
2018-06-27T03:03:35.136Z,101987.75
2018-06-27T03:06:04.221Z,101984.14
2018-06-27T03:08:33.317Z,101986.63
2018-06-27T03:11:02.409Z,101992.64
2018-06-27T03:13:31.516Z,101999.44
2018-06-27T03:16:00.625Z,102001.14
2018-06-27T03:18:29.763Z,102001.95
2018-06-27T03:20:58.965Z,102003.70
2018-06-27T03:23:28.105Z,101999.07
2018-06-27T03:25:57.252Z,101994.02
2018-06-27T03:28:26.389Z,101998.46
2018-06-27T03:30:55.519Z,101998.98
2018-06-27T03:33:24.633Z,102007.39
2018-06-27T03:35:53.784Z,102008.38
2018-06-27T03:38:22.917Z,102010.25
2018-06-27T03:40:52.077Z,102007.15
2018-06-27T03:43:21.289Z,102010.25
2018-06-27T03:45:50.389Z,102004.61
2018-06-27T03:48:19.519Z,102005.42
2018-06-27T03:50:48.624Z,102005.56
2018-06-27T03:53:17.771Z,101994.12
2018-06-27T03:55:46.860Z,102007.83
2018-06-27T03:58:16.036Z,102005.55
2018-06-27T04:00:45.213Z,102010.05
2018-06-27T04:03:14.536Z,102015.28
2018-06-27T04:05:43.616Z,102009.81
2018-06-27T04:08:12.728Z,102015.70
2018-06-27T04:10:41.999Z,102011.27
2018-06-27T04:13:11.215Z,102007.58
2018-06-27T04:15:40.293Z,102005.12
2018-06-27T04:18:09.503Z,102003.66
2018-06-27T04:20:38.603Z,102005.30
2018-06-27T04:23:07.709Z,102017.94
2018-06-27T04:25:36.881Z,102022.61
2018-06-27T04:28:06.304Z,102007.94
2018-06-27T04:30:35.412Z,102011.98
2018-06-27T04:33:04.581Z,102015.56
2018-06-27T04:35:34.213Z,102013.36
2018-06-27T04:38:03.704Z,102009.96
2018-06-27T04:40:32.852Z,102013.14
2018-06-27T04:43:01.965Z,102013.04
2018-06-27T04:45:31.065Z,102014.38
2018-06-27T04:48:00.164Z,102011.02
2018-06-27T04:50:29.740Z,102009.77
2018-06-27T04:52:58.952Z,102010.60
2018-06-27T04:55:28.102Z,102014.55
2018-06-27T04:57:57.190Z,102014.50
2018-06-27T05:00:26.296Z,102020.20
2018-06-27T05:02:55.428Z,102019.09
2018-06-27T05:05:25.061Z,102025.02
2018-06-27T05:07:54.756Z,102023.50
2018-06-27T05:10:23.889Z,102025.47
2018-06-27T05:12:53.119Z,102028.50
2018-06-27T05:15:22.264Z,102018.78
2018-06-27T05:17:51.371Z,102018.96
2018-06-27T05:20:20.488Z,102014.38
2018-06-27T05:22:49.572Z,102015.15
2018-06-27T05:25:18.676Z,102013.17
2018-06-27T05:27:47.769Z,102015.84
2018-06-27T05:30:16.958Z,102022.78
2018-06-27T05:32:46.047Z,102019.42
2018-06-27T05:35:15.161Z,102019.47
2018-06-27T05:37:44.260Z,102021.72
2018-06-27T05:40:13.376Z,102019.32
2018-06-27T05:42:42.455Z,102025.84
2018-06-27T05:45:11.569Z,102016.84
2018-06-27T05:47:40.649Z,102019.36
2018-06-27T05:50:10.052Z,102019.19
2018-06-27T05:52:39.148Z,102021.86
2018-06-27T05:55:09.517Z,102010.11
2018-06-27T05:57:40.316Z,102011.14
2018-06-27T06:00:10.324Z,102009.28
2018-06-27T06:02:39.436Z,102023.11
2018-06-27T06:05:08.653Z,102029.29
2018-06-27T06:07:37.764Z,102025.93
2018-06-27T06:10:06.922Z,102025.26
2018-06-27T06:12:36.233Z,102028.80
2018-06-27T06:15:06.992Z,102029.58
2018-06-27T06:17:36.192Z,102038.30
2018-06-27T06:20:05.284Z,102039.55
2018-06-27T06:22:34.560Z,102044.33
2018-06-27T06:25:03.720Z,102046.17
2018-06-27T06:27:32.852Z,102041.94
2018-06-27T06:30:01.940Z,102042.22
2018-06-27T06:32:31.161Z,102049.61
2018-06-27T06:35:00.140Z,102042.53
2018-06-27T06:37:29.268Z,102049.72
2018-06-27T06:39:58.384Z,102040.02
2018-06-27T06:42:27.492Z,102044.78
2018-06-27T06:44:57.631Z,102050.80
2018-06-27T06:47:26.829Z,102050.18
2018-06-27T06:49:55.920Z,102059.41
2018-06-27T06:52:25.115Z,102062.61
2018-06-27T06:54:54.248Z,102059.20
2018-06-27T06:57:23.424Z,102055.21
2018-06-27T06:59:52.516Z,102047.88
2018-06-27T07:02:21.625Z,102043.55
2018-06-27T07:04:50.740Z,102045.77
2018-06-27T07:07:19.860Z,102049.12
2018-06-27T07:09:49.672Z,102052.19
2018-06-27T07:12:18.780Z,102054.86
2018-06-27T07:14:47.868Z,102051.70
2018-06-27T07:17:16.989Z,102049.28
2018-06-27T07:19:46.245Z,102049.07
2018-06-27T07:22:15.342Z,102042.64
2018-06-27T07:24:44.485Z,102041.02
2018-06-27T07:27:13.722Z,102040.58
2018-06-27T07:29:42.837Z,102046.23
2018-06-27T07:32:11.940Z,102039.23
2018-06-27T07:34:41.029Z,102038.54
2018-06-27T07:37:10.254Z,102034.02
2018-06-27T07:39:39.366Z,102023.69
2018-06-27T07:42:09.388Z,102025.11
2018-06-27T07:44:38.480Z,102022.28
2018-06-27T07:47:07.844Z,102018.91
2018-06-27T07:49:37.572Z,102018.97
2018-06-27T07:52:07.037Z,102019.81
2018-06-27T07:54:39.747Z,102023.72
2018-06-27T07:57:10.917Z,102028.90
2018-06-27T07:59:40.145Z,102031.92
2018-06-27T08:02:09.557Z,102029.39
2018-06-27T08:04:39.804Z,102035.86
2018-06-27T08:07:08.833Z,102028.55
2018-06-27T08:09:38.002Z,102028.52
2018-06-27T08:12:07.728Z,102028.51
2018-06-27T08:14:37.029Z,102027.63
2018-06-27T08:17:06.715Z,102034.14
2018-06-27T08:19:36.050Z,102034.06
2018-06-27T08:22:05.516Z,102030.13
2018-06-27T08:24:34.753Z,102030.58
2018-06-27T08:27:04.106Z,102024.02
2018-06-27T08:29:33.768Z,102028.25
2018-06-27T08:32:02.955Z,102026.52
2018-06-27T08:34:32.056Z,102016.13
2018-06-27T08:37:00.885Z,102030.04
2018-06-27T08:39:30.240Z,102016.77
2018-06-27T08:41:59.854Z,102022.91
2018-06-27T08:44:29.187Z,102020.83
2018-06-27T08:46:58.370Z,102021.27
2018-06-27T08:49:27.656Z,102015.14
2018-06-27T08:51:56.760Z,102019.86
2018-06-27T08:54:26.026Z,102014.09
2018-06-27T08:56:55.113Z,102010.73
2018-06-27T08:59:24.636Z,102007.19
2018-06-27T09:01:53.822Z,102012.47
2018-06-27T09:04:22.909Z,102001.59
2018-06-27T09:06:52.023Z,102004.50
2018-06-27T09:09:21.268Z,102001.38
2018-06-27T09:11:50.578Z,102002.20
2018-06-27T09:14:19.756Z,101998.73
2018-06-27T09:16:48.840Z,101992.27
2018-06-27T09:19:18.021Z,101994.09
2018-06-27T09:21:47.177Z,101993.23
2018-06-27T09:24:17.827Z,101988.41
2018-06-27T09:26:46.998Z,101991.84
2018-06-27T09:29:16.088Z,101991.40
2018-06-27T09:31:45.426Z,101994.38
2018-06-27T09:34:15.336Z,101991.29
2018-06-27T09:36:44.714Z,101992.55
2018-06-27T09:39:14.055Z,101980.73
2018-06-27T09:41:43.367Z,101983.39
2018-06-27T09:44:13.041Z,101981.05
2018-06-27T09:46:42.159Z,101975.09
2018-06-27T09:49:11.397Z,101978.02
2018-06-27T09:51:41.361Z,101975.40
2018-06-27T09:54:10.478Z,101976.00
2018-06-27T09:56:39.619Z,101971.19
2018-06-27T09:59:08.761Z,101976.72
2018-06-27T10:01:37.877Z,101975.52
2018-06-27T10:04:06.965Z,101972.92
2018-06-27T10:06:36.064Z,101970.42
2018-06-27T10:09:07.710Z,101970.86
2018-06-27T10:11:36.810Z,101970.81
2018-06-27T10:14:05.936Z,101965.05
2018-06-27T10:16:35.073Z,101970.69
2018-06-27T10:19:04.156Z,101966.19
2018-06-27T10:21:33.265Z,101968.18
2018-06-27T10:24:02.344Z,101972.41
2018-06-27T10:26:31.447Z,101965.94
2018-06-27T10:29:00.524Z,101956.82
2018-06-27T10:31:29.628Z,101961.12
2018-06-27T10:33:58.716Z,101949.82
2018-06-27T10:36:27.817Z,101950.30
2018-06-27T10:38:56.916Z,101950.42
2018-06-27T10:41:26.013Z,101953.97
2018-06-27T10:43:55.554Z,101946.77
2018-06-27T10:46:25.286Z,101944.27
2018-06-27T10:48:55.134Z,101942.30
2018-06-27T10:51:25.225Z,101947.69
2018-06-27T10:53:55.097Z,101931.95
2018-06-27T10:56:24.400Z,101934.94
2018-06-27T10:58:53.593Z,101933.98
2018-06-27T11:01:23.499Z,101918.06
2018-06-27T11:03:52.946Z,101926.84
2018-06-27T11:06:22.063Z,101922.35
2018-06-27T11:08:51.244Z,101922.66
2018-06-27T11:11:20.929Z,101925.42
2018-06-27T11:13:50.661Z,101921.52
2018-06-27T11:16:19.954Z,101921.50
2018-06-27T11:18:49.922Z,101915.06
2018-06-27T11:21:19.033Z,101918.88
2018-06-27T11:23:48.141Z,101913.36
2018-06-27T11:26:17.217Z,101910.28
2018-06-27T11:28:46.321Z,101909.29
2018-06-27T11:31:15.415Z,101904.14
2018-06-27T11:33:44.511Z,101903.66
2018-06-27T11:36:13.596Z,101901.67
2018-06-27T11:38:42.745Z,101896.08
2018-06-27T11:41:11.790Z,101890.58
2018-06-27T11:43:40.892Z,101885.53
2018-06-27T11:46:10.017Z,101889.05
2018-06-27T11:48:39.108Z,101891.66
2018-06-27T11:51:08.208Z,101878.13
2018-06-27T11:53:37.329Z,101883.80
2018-06-27T11:56:06.423Z,101897.53
2018-06-27T11:58:35.504Z,101892.06
2018-06-27T12:01:04.569Z,101891.64
2018-06-27T12:03:33.668Z,101878.38
2018-06-27T12:06:02.747Z,101879.00
2018-06-27T12:08:31.812Z,101875.52
2018-06-27T12:11:00.900Z,101879.91
2018-06-27T12:13:29.976Z,101877.80
2018-06-27T12:15:59.077Z,101879.02
2018-06-27T12:18:28.182Z,101874.92
2018-06-27T12:20:57.268Z,101869.95
2018-06-27T12:23:26.347Z,101862.95
2018-06-27T12:25:55.462Z,101865.28
2018-06-27T12:28:24.537Z,101872.98
2018-06-27T12:30:53.673Z,101857.75
2018-06-27T12:33:23.471Z,101861.56
2018-06-27T12:35:52.646Z,101857.44
2018-06-27T12:38:21.717Z,101855.45
2018-06-27T12:40:50.801Z,101858.80
2018-06-27T12:43:19.914Z,101858.06
2018-06-27T12:45:49.001Z,101861.98
2018-06-27T12:48:18.068Z,101856.45
2018-06-27T12:50:47.182Z,101846.67
2018-06-27T12:53:16.232Z,101848.62
2018-06-27T12:55:45.344Z,101853.27
2018-06-27T12:58:14.412Z,101845.09
2018-06-27T13:00:43.508Z,101847.73
2018-06-27T13:03:12.620Z,101850.73
2018-06-27T13:05:41.716Z,101845.11
2018-06-27T13:08:10.789Z,101839.97
2018-06-27T13:10:39.876Z,101847.22
2018-06-27T13:13:08.948Z,101840.52
2018-06-27T13:15:38.046Z,101833.83
2018-06-27T13:18:07.500Z,101838.16
2018-06-27T13:20:36.652Z,101840.63
2018-06-27T13:23:05.932Z,101829.39
2018-06-27T13:25:35.026Z,101833.28
2018-06-27T13:28:04.104Z,101826.27
2018-06-27T13:30:33.196Z,101827.11
2018-06-27T13:33:02.273Z,101824.61
2018-06-27T13:35:31.436Z,101831.06
2018-06-27T13:38:00.508Z,101827.73
2018-06-27T13:40:29.590Z,101827.88
2018-06-27T13:42:58.688Z,101820.21
2018-06-27T13:45:27.754Z,101822.50
2018-06-27T13:47:56.852Z,101816.02
2018-06-27T13:50:25.985Z,101817.03
2018-06-27T13:52:56.115Z,101815.67
2018-06-27T13:55:25.259Z,101810.69
2018-06-27T13:57:54.381Z,101806.59
2018-06-27T14:00:23.525Z,101812.91
2018-06-27T14:02:52.630Z,101803.26
2018-06-27T14:05:21.716Z,101806.07
2018-06-27T14:07:50.817Z,101798.08
2018-06-27T14:10:19.921Z,101811.30
2018-06-27T14:12:49.056Z,101815.32
2018-06-27T14:15:18.153Z,101805.84
2018-06-27T14:17:47.264Z,101807.02
2018-06-27T14:20:16.349Z,101797.86
2018-06-27T14:22:45.457Z,101801.15
2018-06-27T14:25:14.601Z,101791.92
2018-06-27T14:27:43.697Z,101798.74
2018-06-27T14:30:12.776Z,101801.95
2018-06-27T14:32:41.894Z,101797.56
2018-06-27T14:35:10.985Z,101796.75
2018-06-27T14:37:40.174Z,101802.08
2018-06-27T14:40:09.315Z,101793.14
2018-06-27T14:42:38.365Z,101792.41
2018-06-27T14:45:07.911Z,101799.62
2018-06-27T14:47:37.022Z,101789.55
2018-06-27T14:50:06.129Z,101792.25
2018-06-27T14:52:35.236Z,101793.08
2018-06-27T14:55:04.389Z,101794.28
2018-06-27T14:57:33.477Z,101788.45
2018-06-27T15:00:02.574Z,101789.58
2018-06-27T15:02:31.663Z,101790.97
2018-06-27T15:05:00.785Z,101777.79
2018-06-27T15:07:29.866Z,101780.42
2018-06-27T15:09:59.043Z,101776.67
2018-06-27T15:12:28.137Z,101781.59
2018-06-27T15:14:57.233Z,101773.71
2018-06-27T15:17:26.316Z,101771.03
2018-06-27T15:19:55.423Z,101771.92
2018-06-27T15:22:24.501Z,101771.52
2018-06-27T15:24:53.612Z,101769.08
2018-06-27T15:27:22.676Z,101765.16
2018-06-27T15:29:51.776Z,101766.98
2018-06-27T15:32:20.861Z,101759.52
2018-06-27T15:34:49.967Z,101759.55
2018-06-27T15:37:19.040Z,101760.69
2018-06-27T15:39:48.144Z,101763.05
2018-06-27T15:42:17.241Z,101765.56
2018-06-27T15:44:46.376Z,101764.92
2018-06-27T15:47:15.473Z,101760.87
2018-06-27T15:49:44.576Z,101759.06
2018-06-27T15:52:13.681Z,101760.46
2018-06-27T15:54:42.836Z,101751.55
2018-06-27T15:57:11.920Z,101747.14
2018-06-27T15:59:48.391Z,101746.52
2018-06-27T16:02:17.481Z,101746.88
2018-06-27T16:04:46.584Z,101751.31
2018-06-27T16:07:15.713Z,101747.30
2018-06-27T16:09:44.813Z,101748.77
2018-06-27T16:12:13.935Z,101749.34
2018-06-27T16:14:43.026Z,101751.83
2018-06-27T16:17:12.324Z,101745.69
2018-06-27T16:19:41.213Z,101752.88
2018-06-27T16:22:10.313Z,101744.03
2018-06-27T16:24:39.400Z,101745.91
2018-06-27T16:27:08.521Z,101745.67
2018-06-27T16:29:37.656Z,101738.20
2018-06-27T16:32:06.692Z,101739.40
2018-06-27T16:34:35.777Z,101745.30
2018-06-27T16:37:04.915Z,101747.35
2018-06-27T16:39:34.009Z,101750.80
2018-06-27T16:42:03.114Z,101741.89
2018-06-27T16:44:32.216Z,101743.33
2018-06-27T16:47:01.300Z,101740.72
2018-06-27T16:49:30.380Z,101748.09
2018-06-27T16:51:59.493Z,101743.18
2018-06-27T16:54:28.600Z,101741.86
2018-06-27T16:56:57.701Z,101752.47
2018-06-27T16:59:26.777Z,101744.23
2018-06-27T17:01:55.907Z,101748.02
2018-06-27T17:04:24.992Z,101749.72
2018-06-27T17:06:54.196Z,101743.88
2018-06-27T17:09:23.229Z,101744.68
2018-06-27T17:11:52.333Z,101737.91
2018-06-27T17:14:22.392Z,101740.72
2018-06-27T17:16:51.496Z,101736.32
2018-06-27T17:19:20.604Z,101735.23
2018-06-27T17:21:49.704Z,101736.95
2018-06-27T17:24:18.808Z,101743.70
2018-06-27T17:26:47.881Z,101749.11
2018-06-27T17:29:17.057Z,101747.66
2018-06-27T17:31:46.141Z,101742.58
2018-06-27T17:34:15.241Z,101741.56
2018-06-27T17:36:44.328Z,101745.72
2018-06-27T17:39:13.561Z,101739.13
2018-06-27T17:41:42.654Z,101748.45
2018-06-27T17:44:11.756Z,101747.95
2018-06-27T17:46:40.865Z,101746.58
2018-06-27T17:49:09.981Z,101749.29
2018-06-27T17:51:39.096Z,101753.50
2018-06-27T17:54:08.232Z,101753.13
2018-06-27T17:56:37.317Z,101746.73
2018-06-27T17:59:06.657Z,101749.91
2018-06-27T18:01:35.869Z,101755.70
2018-06-27T18:04:04.951Z,101750.02
2018-06-27T18:06:34.033Z,101747.41
2018-06-27T18:09:05.022Z,101749.23
2018-06-27T18:11:34.113Z,101746.94
2018-06-27T18:14:03.345Z,101749.23
2018-06-27T18:16:32.432Z,101750.47
2018-06-27T18:19:01.549Z,101753.80
2018-06-27T18:21:30.680Z,101751.19
2018-06-27T18:23:59.772Z,101753.62
2018-06-27T18:26:28.879Z,101750.57
2018-06-27T18:28:57.971Z,101751.55
2018-06-27T18:31:27.089Z,101750.47
2018-06-27T18:33:56.298Z,101760.20
2018-06-27T18:36:26.335Z,101757.34
2018-06-27T18:38:56.554Z,101755.37
2018-06-27T18:41:26.865Z,101756.03
2018-06-27T18:43:56.038Z,101754.05
2018-06-27T18:46:25.128Z,101757.47
2018-06-27T18:48:54.213Z,101756.93
2018-06-27T18:51:23.352Z,101755.18
2018-06-27T18:53:52.579Z,101762.05
2018-06-27T18:56:22.593Z,101759.08
2018-06-27T18:58:52.612Z,101760.51
2018-06-27T19:01:21.919Z,101769.31
2018-06-27T19:03:51.056Z,101769.13
2018-06-27T19:06:20.525Z,101773.22
2018-06-27T19:08:49.785Z,101770.38
2018-06-27T19:11:18.892Z,101772.27
2018-06-27T19:13:48.017Z,101775.41
2018-06-27T19:16:17.148Z,101778.18
2018-06-27T19:18:46.241Z,101774.33
2018-06-27T19:21:15.374Z,101775.77
2018-06-27T19:23:44.457Z,101773.72
2018-06-27T19:26:13.564Z,101775.52
2018-06-27T19:28:42.657Z,101781.73
2018-06-27T19:31:11.768Z,101781.12
2018-06-27T19:33:40.860Z,101781.98
2018-06-27T19:36:09.997Z,101777.78
2018-06-27T19:38:39.100Z,101783.56
2018-06-27T19:41:08.225Z,101786.56
2018-06-27T19:43:37.289Z,101783.73
2018-06-27T19:46:06.569Z,101793.11
2018-06-27T19:48:35.688Z,101790.75
2018-06-27T19:51:04.784Z,101793.03
2018-06-27T19:53:33.938Z,101796.23
2018-06-27T19:56:03.062Z,101791.21
2018-06-27T19:58:32.212Z,101792.29
2018-06-27T20:01:01.308Z,101792.48
2018-06-27T20:03:30.429Z,101798.65
2018-06-27T20:05:59.509Z,101795.67
2018-06-27T20:08:28.653Z,101800.06
2018-06-27T20:10:57.744Z,101800.56
2018-06-27T20:13:26.869Z,101802.76
2018-06-27T20:15:56.039Z,101809.23
2018-06-27T20:18:25.085Z,101813.56
2018-06-27T20:20:54.922Z,101818.00
2018-06-27T20:23:24.033Z,101814.28
2018-06-27T20:25:53.165Z,101820.03
2018-06-27T20:28:22.281Z,101820.45
2018-06-27T20:30:52.161Z,101826.03
2018-06-27T20:33:21.277Z,101817.05
2018-06-27T20:35:50.373Z,101825.42
2018-06-27T20:38:19.496Z,101818.92
2018-06-27T20:40:48.589Z,101826.39
2018-06-27T20:43:17.692Z,101833.45
2018-06-27T20:45:47.218Z,101826.72
2018-06-27T20:48:16.317Z,101831.94
2018-06-27T20:50:46.256Z,101827.18
2018-06-27T20:53:15.369Z,101825.95
2018-06-27T20:55:44.477Z,101826.44
2018-06-27T20:58:13.558Z,101831.25
2018-06-27T21:00:42.662Z,101831.73
2018-06-27T21:03:11.820Z,101827.05
2018-06-27T21:05:40.976Z,101830.50
2018-06-27T21:08:10.049Z,101830.50
2018-06-27T21:10:39.165Z,101834.80
2018-06-27T21:13:08.266Z,101831.75
2018-06-27T21:15:38.177Z,101831.31
2018-06-27T21:18:07.288Z,101831.31
2018-06-27T21:20:36.405Z,101836.05
2018-06-27T21:23:05.636Z,101837.37
2018-06-27T21:25:34.749Z,101834.36
2018-06-27T21:28:04.565Z,101842.63
2018-06-27T21:30:33.668Z,101840.06
2018-06-27T21:33:02.791Z,101840.94
2018-06-27T21:35:31.912Z,101837.06
2018-06-27T21:38:01.073Z,101842.70
2018-06-27T21:40:30.176Z,101842.70
2018-06-27T21:42:59.264Z,101842.25
2018-06-27T21:45:28.382Z,101843.14
2018-06-27T21:47:57.462Z,101841.42
2018-06-27T21:50:26.561Z,101838.38
2018-06-27T21:52:55.828Z,101841.83
2018-06-27T21:55:24.954Z,101843.56
2018-06-27T21:57:54.040Z,101843.13
2018-06-27T22:00:25.013Z,101853.92
2018-06-27T22:02:54.280Z,101848.31
2018-06-27T22:05:23.393Z,101844.86
2018-06-27T22:07:52.481Z,101846.13
2018-06-27T22:10:21.563Z,101849.94
2018-06-27T22:12:50.725Z,101847.37
2018-06-27T22:15:19.807Z,101858.97
2018-06-27T22:17:49.029Z,101857.23
2018-06-27T22:20:18.101Z,101857.20
2018-06-27T22:22:47.197Z,101864.99
2018-06-27T22:25:16.308Z,101868.91
2018-06-27T22:27:45.412Z,101868.00
2018-06-27T22:30:14.514Z,101872.28
2018-06-27T22:32:43.612Z,101867.11
2018-06-27T22:35:12.689Z,101865.36
2018-06-27T22:37:41.785Z,101867.06
2018-06-27T22:40:10.845Z,101868.79
2018-06-27T22:42:39.940Z,101859.67
2018-06-27T22:45:09.024Z,101866.51
2018-06-27T22:47:38.149Z,101863.87
2018-06-27T22:50:07.217Z,101858.21
2018-06-27T22:52:36.308Z,101857.70
2018-06-27T22:55:05.409Z,101865.05
2018-06-27T22:57:34.516Z,101866.86
2018-06-27T23:00:03.672Z,101863.77
2018-06-27T23:02:32.506Z,101868.50
2018-06-27T23:05:01.574Z,101865.46
2018-06-27T23:07:30.748Z,101869.78
2018-06-27T23:09:59.861Z,101871.03
2018-06-27T23:12:29.348Z,101875.25
2018-06-27T23:14:58.484Z,101880.33
2018-06-27T23:17:27.646Z,101874.13
2018-06-27T23:19:56.760Z,101878.62
2018-06-27T23:22:37.236Z,101875.03
2018-06-27T23:25:06.396Z,101877.49
2018-06-27T23:27:36.457Z,101876.67
2018-06-27T23:30:06.505Z,101883.91
2018-06-27T23:32:35.621Z,101882.16
2018-06-27T23:35:04.860Z,101882.93
2018-06-27T23:37:33.992Z,101878.56
2018-06-27T23:40:03.119Z,101879.31
2018-06-27T23:42:32.314Z,101882.62
2018-06-27T23:45:01.896Z,101883.89
2018-06-27T23:47:31.487Z,101880.67
2018-06-27T23:50:00.609Z,101881.12
2018-06-27T23:52:29.716Z,101877.53
2018-06-27T23:54:58.866Z,101882.05
2018-06-27T23:57:27.988Z,101875.43
2018-06-27T23:59:57.092Z,101873.23
